Flight Number: AVA1570 Duration: 4:30
Departure: Astana (UACC) at 03:30 Distance: 1974.17 Nm
Arrival: Beijing Capital Intl Airport (ZBAA) at 08:00 Equipment: MD-81

Weather Information
Astana, Kazakhstan (UACC) 51-12N 071-27E Apr 07, 2020 - 11:30 AM EDT / 2020.04.07 1530 UTC
Wind: from the WSW (240 degrees) at 29 MPH (25 KT) gusting to 40 MPH (35 KT):0
Visibility: greater than 7 mile(s):0
Sky conditions: mostly cloudy Temperature: 35 F (2 C)
Windchill: 21 F (-6 C):1 Dew Point: 26 F (-3 C) Relative Humidity: 69% Pressure (altimeter): 29.74 in. Hg (1007 hPa)
ob: UACC 071530Z 24013G18MPS 9999 BKN026 02/M03 Q1007 R22/0///70 NOSIG RMK QFE724/0965 cycle: 15
Sunrise: 00:38 Sunset: 13:53 (UTC)

Beijing, China (ZBAA) 39-56N 116-17E 55M Apr 07, 2020 - 11:30 AM EDT / 2020.04.07 1530 UTC
Wind: from the SE (130 degrees) at 7 MPH (6 KT):0
Visibility: greater than 7 mile(s):0 Temperature: 48 F (9 C) Dew Point: 24 F (-4 C) Relative Humidity: 39% Pressure (altimeter): 30.15 in. Hg (1021 hPa)
ob: ZBAA 071530Z 13003MPS CAVOK 09/M04 Q1021 NOSIG cycle: 15
Sunrise: 21:49 Sunset: 10:41 (UTC)

TAF:2020/04/07 18:00 TAF ZBAA 071504Z 0718/0818 18004MPS CAVOK TX18/0807Z TN08/0721Z= TAF ZBAD 071504Z 0718/0818 15004MPS CAVOK TX19/0807Z TN06/0721Z

This route has never been flown.

Route map